sensor_id;sensor_type;location;lat;lon;timestamp;P1;durP1;ratioP1;P2;durP2;ratioP2
46411;SDS011;32113;42.012;24.870;2023-11-21T00:01:56;2.15;;;1.00;;
46411;SDS011;32113;42.012;24.870;2023-11-21T00:04:22;1.58;;;1.00;;
46411;SDS011;32113;42.012;24.870;2023-11-21T00:06:48;2.45;;;1.42;;
46411;SDS011;32113;42.012;24.870;2023-11-21T00:09:14;3.00;;;1.75;;
46411;SDS011;32113;42.012;24.870;2023-11-21T00:11:43;3.75;;;1.60;;
46411;SDS011;32113;42.012;24.870;2023-11-21T00:14:11;4.13;;;0.97;;
46411;SDS011;32113;42.012;24.870;2023-11-21T00:16:36;1.80;;;0.90;;
46411;SDS011;32113;42.012;24.870;2023-11-21T00:19:02;2.20;;;0.98;;
46411;SDS011;32113;42.012;24.870;2023-11-21T00:21:27;3.40;;;0.80;;
46411;SDS011;32113;42.012;24.870;2023-11-21T00:23:53;1.55;;;0.90;;
46411;SDS011;32113;42.012;24.870;2023-11-21T00:26:18;1.95;;;0.98;;
46411;SDS011;32113;42.012;24.870;2023-11-21T00:28:44;3.25;;;1.10;;
46411;SDS011;32113;42.012;24.870;2023-11-21T00:31:10;3.00;;;1.27;;
46411;SDS011;32113;42.012;24.870;2023-11-21T00:33:35;1.58;;;0.90;;
46411;SDS011;32113;42.012;24.870;2023-11-21T00:36:01;2.35;;;1.10;;
46411;SDS011;32113;42.012;24.870;2023-11-21T00:38:26;1.80;;;1.05;;
46411;SDS011;32113;42.012;24.870;2023-11-21T00:40:52;2.97;;;1.00;;
46411;SDS011;32113;42.012;24.870;2023-11-21T00:43:21;2.13;;;0.93;;
46411;SDS011;32113;42.012;24.870;2023-11-21T00:45:49;4.43;;;0.95;;
46411;SDS011;32113;42.012;24.870;2023-11-21T00:48:15;1.63;;;0.90;;
46411;SDS011;32113;42.012;24.870;2023-11-21T00:50:40;2.47;;;1.00;;
46411;SDS011;32113;42.012;24.870;2023-11-21T00:53:06;2.60;;;0.88;;
46411;SDS011;32113;42.012;24.870;2023-11-21T00:55:32;1.83;;;0.70;;
46411;SDS011;32113;42.012;24.870;2023-11-21T00:57:58;1.83;;;0.88;;
46411;SDS011;32113;42.012;24.870;2023-11-21T01:00:24;3.13;;;0.80;;
46411;SDS011;32113;42.012;24.870;2023-11-21T01:02:50;1.98;;;0.90;;
46411;SDS011;32113;42.012;24.870;2023-11-21T01:05:15;1.35;;;0.80;;
46411;SDS011;32113;42.012;24.870;2023-11-21T01:07:41;2.92;;;0.75;;
46411;SDS011;32113;42.012;24.870;2023-11-21T01:10:06;1.65;;;1.00;;
46411;SDS011;32113;42.012;24.870;2023-11-21T01:12:34;2.57;;;1.10;;
46411;SDS011;32113;42.012;24.870;2023-11-21T01:15:01;1.80;;;1.00;;
46411;SDS011;32113;42.012;24.870;2023-11-21T01:17:26;3.92;;;0.70;;
46411;SDS011;32113;42.012;24.870;2023-11-21T01:19:52;1.98;;;0.80;;
46411;SDS011;32113;42.012;24.870;2023-11-21T01:22:17;1.30;;;0.70;;
46411;SDS011;32113;42.012;24.870;2023-11-21T01:24:47;2.42;;;1.00;;
46411;SDS011;32113;42.012;24.870;2023-11-21T01:27:12;3.17;;;0.77;;
46411;SDS011;32113;42.012;24.870;2023-11-21T01:29:38;2.10;;;0.80;;
46411;SDS011;32113;42.012;24.870;2023-11-21T01:32:03;1.73;;;0.77;;
46411;SDS011;32113;42.012;24.870;2023-11-21T01:34:29;1.30;;;0.75;;
46411;SDS011;32113;42.012;24.870;2023-11-21T01:36:55;1.35;;;0.63;;
46411;SDS011;32113;42.012;24.870;2023-11-21T01:39:21;3.67;;;0.80;;
46411;SDS011;32113;42.012;24.870;2023-11-21T01:41:49;2.38;;;0.90;;
46411;SDS011;32113;42.012;24.870;2023-11-21T01:44:16;2.28;;;0.80;;
46411;SDS011;32113;42.012;24.870;2023-11-21T01:46:42;1.02;;;0.68;;
46411;SDS011;32113;42.012;24.870;2023-11-21T01:49:07;1.52;;;0.80;;
46411;SDS011;32113;42.012;24.870;2023-11-21T01:51:38;4.90;;;1.08;;
46411;SDS011;32113;42.012;24.870;2023-11-21T01:54:05;2.17;;;0.60;;
46411;SDS011;32113;42.012;24.870;2023-11-21T01:56:31;5.43;;;1.67;;
46411;SDS011;32113;42.012;24.870;2023-11-21T01:58:57;2.38;;;0.80;;
46411;SDS011;32113;42.012;24.870;2023-11-21T02:01:23;1.67;;;0.90;;
46411;SDS011;32113;42.012;24.870;2023-11-21T02:03:48;1.52;;;0.60;;
46411;SDS011;32113;42.012;24.870;2023-11-21T02:06:14;4.53;;;0.60;;
46411;SDS011;32113;42.012;24.870;2023-11-21T02:08:39;1.92;;;0.70;;
46411;SDS011;32113;42.012;24.870;2023-11-21T02:11:07;2.67;;;0.73;;
46411;SDS011;32113;42.012;24.870;2023-11-21T02:13:34;1.40;;;0.63;;
46411;SDS011;32113;42.012;24.870;2023-11-21T02:16:00;3.50;;;0.65;;
46411;SDS011;32113;42.012;24.870;2023-11-21T02:18:26;4.55;;;0.65;;
46411;SDS011;32113;42.012;24.870;2023-11-21T02:20:54;1.65;;;0.75;;
46411;SDS011;32113;42.012;24.870;2023-11-21T02:23:20;1.38;;;0.80;;
46411;SDS011;32113;42.012;24.870;2023-11-21T02:25:46;0.93;;;0.60;;
46411;SDS011;32113;42.012;24.870;2023-11-21T02:28:12;1.73;;;0.55;;
46411;SDS011;32113;42.012;24.870;2023-11-21T02:30:40;1.35;;;0.65;;
46411;SDS011;32113;42.012;24.870;2023-11-21T02:33:05;1.40;;;0.70;;
46411;SDS011;32113;42.012;24.870;2023-11-21T02:35:32;3.88;;;0.70;;
46411;SDS011;32113;42.012;24.870;2023-11-21T02:37:57;1.48;;;0.68;;
46411;SDS011;32113;42.012;24.870;2023-11-21T02:40:23;1.23;;;0.40;;
46411;SDS011;32113;42.012;24.870;2023-11-21T02:42:50;1.00;;;0.60;;
46411;SDS011;32113;42.012;24.870;2023-11-21T02:45:16;2.35;;;0.90;;
46411;SDS011;32113;42.012;24.870;2023-11-21T02:47:42;1.85;;;0.73;;
46411;SDS011;32113;42.012;24.870;2023-11-21T02:50:08;3.10;;;0.60;;
46411;SDS011;32113;42.012;24.870;2023-11-21T02:52:35;1.38;;;0.68;;
46411;SDS011;32113;42.012;24.870;2023-11-21T02:55:03;1.42;;;0.63;;
46411;SDS011;32113;42.012;24.870;2023-11-21T02:57:29;2.47;;;0.75;;
46411;SDS011;32113;42.012;24.870;2023-11-21T02:59:55;1.90;;;0.90;;
46411;SDS011;32113;42.012;24.870;2023-11-21T03:02:20;1.65;;;0.77;;
46411;SDS011;32113;42.012;24.870;2023-11-21T03:04:47;0.98;;;0.47;;
46411;SDS011;32113;42.012;24.870;2023-11-21T03:07:14;1.52;;;0.70;;
46411;SDS011;32113;42.012;24.870;2023-11-21T03:09:40;2.10;;;0.70;;
46411;SDS011;32113;42.012;24.870;2023-11-21T03:12:05;1.55;;;0.73;;
46411;SDS011;32113;42.012;24.870;2023-11-21T03:14:31;6.10;;;2.20;;
46411;SDS011;32113;42.012;24.870;2023-11-21T03:16:56;6.43;;;2.10;;
46411;SDS011;32113;42.012;24.870;2023-11-21T03:19:22;2.17;;;1.00;;
46411;SDS011;32113;42.012;24.870;2023-11-21T03:21:48;4.43;;;1.73;;
46411;SDS011;32113;42.012;24.870;2023-11-21T03:24:14;2.47;;;1.40;;
46411;SDS011;32113;42.012;24.870;2023-11-21T03:26:44;2.15;;;0.70;;
46411;SDS011;32113;42.012;24.870;2023-11-21T03:29:10;1.45;;;0.80;;
46411;SDS011;32113;42.012;24.870;2023-11-21T03:31:35;2.20;;;0.65;;
46411;SDS011;32113;42.012;24.870;2023-11-21T03:34:01;5.30;;;0.98;;
46411;SDS011;32113;42.012;24.870;2023-11-21T03:36:26;3.03;;;1.00;;
46411;SDS011;32113;42.012;24.870;2023-11-21T03:38:52;1.88;;;0.90;;
46411;SDS011;32113;42.012;24.870;2023-11-21T03:41:18;1.33;;;0.80;;
46411;SDS011;32113;42.012;24.870;2023-11-21T03:43:43;1.60;;;1.05;;
46411;SDS011;32113;42.012;24.870;2023-11-21T03:46:09;3.58;;;1.23;;
46411;SDS011;32113;42.012;24.870;2023-11-21T03:48:35;6.45;;;2.20;;
46411;SDS011;32113;42.012;24.870;2023-11-21T03:51:00;4.07;;;1.50;;
46411;SDS011;32113;42.012;24.870;2023-11-21T03:53:26;2.58;;;1.58;;
46411;SDS011;32113;42.012;24.870;2023-11-21T03:55:51;1.55;;;0.80;;
46411;SDS011;32113;42.012;24.870;2023-11-21T03:58:17;2.42;;;1.13;;
46411;SDS011;32113;42.012;24.870;2023-11-21T04:00:42;5.20;;;1.48;;
46411;SDS011;32113;42.012;24.870;2023-11-21T04:03:08;5.53;;;1.85;;
46411;SDS011;32113;42.012;24.870;2023-11-21T04:05:33;2.08;;;1.20;;
46411;SDS011;32113;42.012;24.870;2023-11-21T04:07:59;2.08;;;0.93;;
46411;SDS011;32113;42.012;24.870;2023-11-21T04:10:24;1.27;;;0.70;;
46411;SDS011;32113;42.012;24.870;2023-11-21T04:12:49;6.35;;;1.50;;
46411;SDS011;32113;42.012;24.870;2023-11-21T04:15:15;3.35;;;1.88;;
46411;SDS011;32113;42.012;24.870;2023-11-21T04:17:41;2.60;;;1.17;;
46411;SDS011;32113;42.012;24.870;2023-11-21T04:20:07;2.63;;;0.95;;
46411;SDS011;32113;42.012;24.870;2023-11-21T04:22:38;1.63;;;0.90;;
46411;SDS011;32113;42.012;24.870;2023-11-21T04:25:12;2.10;;;0.80;;
46411;SDS011;32113;42.012;24.870;2023-11-21T04:27:40;2.40;;;1.38;;
46411;SDS011;32113;42.012;24.870;2023-11-21T04:30:08;0.80;;;0.50;;
46411;SDS011;32113;42.012;24.870;2023-11-21T04:32:35;4.18;;;0.98;;
46411;SDS011;32113;42.012;24.870;2023-11-21T04:35:00;6.25;;;2.83;;
46411;SDS011;32113;42.012;24.870;2023-11-21T04:37:26;7.68;;;2.90;;
46411;SDS011;32113;42.012;24.870;2023-11-21T04:39:51;10.65;;;4.63;;
46411;SDS011;32113;42.012;24.870;2023-11-21T04:42:17;16.48;;;7.90;;
46411;SDS011;32113;42.012;24.870;2023-11-21T04:44:42;5.55;;;3.00;;
46411;SDS011;32113;42.012;24.870;2023-11-21T04:47:09;9.05;;;3.78;;
46411;SDS011;32113;42.012;24.870;2023-11-21T04:49:34;4.28;;;2.17;;
46411;SDS011;32113;42.012;24.870;2023-11-21T04:52:00;3.17;;;1.25;;
46411;SDS011;32113;42.012;24.870;2023-11-21T04:54:26;4.93;;;2.25;;
46411;SDS011;32113;42.012;24.870;2023-11-21T04:56:52;13.20;;;5.35;;
46411;SDS011;32113;42.012;24.870;2023-11-21T04:59:17;12.07;;;5.80;;
46411;SDS011;32113;42.012;24.870;2023-11-21T05:01:43;11.23;;;5.30;;
46411;SDS011;32113;42.012;24.870;2023-11-21T05:04:08;10.85;;;4.80;;
46411;SDS011;32113;42.012;24.870;2023-11-21T05:06:34;7.80;;;3.45;;
46411;SDS011;32113;42.012;24.870;2023-11-21T05:08:59;11.10;;;3.90;;
46411;SDS011;32113;42.012;24.870;2023-11-21T05:11:25;5.32;;;2.60;;
46411;SDS011;32113;42.012;24.870;2023-11-21T05:13:51;7.88;;;3.97;;
46411;SDS011;32113;42.012;24.870;2023-11-21T05:16:18;8.20;;;4.38;;
46411;SDS011;32113;42.012;24.870;2023-11-21T05:18:44;5.50;;;2.95;;
46411;SDS011;32113;42.012;24.870;2023-11-21T05:21:10;1.58;;;1.05;;
46411;SDS011;32113;42.012;24.870;2023-11-21T05:23:35;1.42;;;0.88;;
46411;SDS011;32113;42.012;24.870;2023-11-21T05:26:02;1.42;;;0.80;;
46411;SDS011;32113;42.012;24.870;2023-11-21T05:28:28;2.00;;;1.00;;
46411;SDS011;32113;42.012;24.870;2023-11-21T05:30:53;1.73;;;0.93;;
46411;SDS011;32113;42.012;24.870;2023-11-21T05:33:18;2.92;;;0.85;;
46411;SDS011;32113;42.012;24.870;2023-11-21T05:35:44;3.53;;;0.90;;
46411;SDS011;32113;42.012;24.870;2023-11-21T05:38:09;2.40;;;0.93;;
46411;SDS011;32113;42.012;24.870;2023-11-21T05:40:35;2.45;;;1.13;;
46411;SDS011;32113;42.012;24.870;2023-11-21T05:43:02;4.55;;;1.10;;
46411;SDS011;32113;42.012;24.870;2023-11-21T05:45:27;1.42;;;0.80;;
46411;SDS011;32113;42.012;24.870;2023-11-21T05:47:54;2.25;;;0.95;;
46411;SDS011;32113;42.012;24.870;2023-11-21T05:50:20;3.17;;;1.23;;
46411;SDS011;32113;42.012;24.870;2023-11-21T05:52:47;6.32;;;1.23;;
46411;SDS011;32113;42.012;24.870;2023-11-21T05:55:13;2.67;;;1.30;;
46411;SDS011;32113;42.012;24.870;2023-11-21T05:57:39;3.72;;;1.25;;
46411;SDS011;32113;42.012;24.870;2023-11-21T06:00:07;7.47;;;1.42;;
46411;SDS011;32113;42.012;24.870;2023-11-21T06:02:40;3.33;;;1.42;;
46411;SDS011;32113;42.012;24.870;2023-11-21T06:05:07;3.65;;;2.35;;
46411;SDS011;32113;42.012;24.870;2023-11-21T06:07:33;3.30;;;1.40;;
46411;SDS011;32113;42.012;24.870;2023-11-21T06:09:59;3.70;;;1.50;;
46411;SDS011;32113;42.012;24.870;2023-11-21T06:12:24;3.20;;;1.15;;
46411;SDS011;32113;42.012;24.870;2023-11-21T06:14:50;4.30;;;1.40;;
46411;SDS011;32113;42.012;24.870;2023-11-21T06:17:16;3.50;;;1.60;;
46411;SDS011;32113;42.012;24.870;2023-11-21T06:19:42;5.75;;;1.90;;
46411;SDS011;32113;42.012;24.870;2023-11-21T06:22:10;3.92;;;1.75;;
46411;SDS011;32113;42.012;24.870;2023-11-21T06:24:36;6.05;;;1.52;;
46411;SDS011;32113;42.012;24.870;2023-11-21T06:27:03;6.72;;;4.25;;
46411;SDS011;32113;42.012;24.870;2023-11-21T06:29:29;3.20;;;1.17;;
46411;SDS011;32113;42.012;24.870;2023-11-21T06:31:55;2.20;;;0.98;;
46411;SDS011;32113;42.012;24.870;2023-11-21T06:34:20;2.20;;;1.00;;
46411;SDS011;32113;42.012;24.870;2023-11-21T06:36:46;1.98;;;0.90;;
46411;SDS011;32113;42.012;24.870;2023-11-21T06:39:12;4.60;;;1.20;;
46411;SDS011;32113;42.012;24.870;2023-11-21T06:41:40;2.00;;;0.90;;
46411;SDS011;32113;42.012;24.870;2023-11-21T06:44:05;2.10;;;1.30;;
46411;SDS011;32113;42.012;24.870;2023-11-21T06:46:31;2.22;;;1.17;;
46411;SDS011;32113;42.012;24.870;2023-11-21T06:48:56;1.90;;;0.93;;
46411;SDS011;32113;42.012;24.870;2023-11-21T06:51:22;2.15;;;0.90;;
46411;SDS011;32113;42.012;24.870;2023-11-21T06:53:47;2.42;;;1.10;;
46411;SDS011;32113;42.012;24.870;2023-11-21T06:56:19;1.50;;;0.90;;
46411;SDS011;32113;42.012;24.870;2023-11-21T06:58:45;3.63;;;1.10;;
46411;SDS011;32113;42.012;24.870;2023-11-21T07:01:12;5.18;;;1.48;;
46411;SDS011;32113;42.012;24.870;2023-11-21T07:03:38;3.38;;;1.20;;
46411;SDS011;32113;42.012;24.870;2023-11-21T07:06:04;1.95;;;1.08;;
46411;SDS011;32113;42.012;24.870;2023-11-21T07:08:30;2.03;;;1.00;;
46411;SDS011;32113;42.012;24.870;2023-11-21T07:10:56;4.50;;;1.15;;
46411;SDS011;32113;42.012;24.870;2023-11-21T07:13:21;5.10;;;1.25;;
46411;SDS011;32113;42.012;24.870;2023-11-21T07:15:47;5.00;;;1.10;;
46411;SDS011;32113;42.012;24.870;2023-11-21T07:18:13;3.08;;;0.90;;
46411;SDS011;32113;42.012;24.870;2023-11-21T07:20:38;8.77;;;1.40;;
46411;SDS011;32113;42.012;24.870;2023-11-21T07:23:04;3.95;;;2.03;;
46411;SDS011;32113;42.012;24.870;2023-11-21T07:25:30;6.85;;;3.60;;
46411;SDS011;32113;42.012;24.870;2023-11-21T07:27:56;8.80;;;3.95;;
46411;SDS011;32113;42.012;24.870;2023-11-21T07:30:22;4.93;;;2.90;;
46411;SDS011;32113;42.012;24.870;2023-11-21T07:32:48;16.80;;;8.48;;
46411;SDS011;32113;42.012;24.870;2023-11-21T07:35:14;26.40;;;11.63;;
46411;SDS011;32113;42.012;24.870;2023-11-21T07:37:39;25.90;;;11.27;;
46411;SDS011;32113;42.012;24.870;2023-11-21T07:40:05;26.10;;;12.07;;
46411;SDS011;32113;42.012;24.870;2023-11-21T07:42:33;26.70;;;12.10;;
46411;SDS011;32113;42.012;24.870;2023-11-21T07:53:36;27.63;;;10.98;;
46411;SDS011;32113;42.012;24.870;2023-11-21T07:56:04;23.67;;;10.73;;
46411;SDS011;32113;42.012;24.870;2023-11-21T07:58:31;26.75;;;11.95;;
46411;SDS011;32113;42.012;24.870;2023-11-21T08:00:58;27.23;;;12.15;;
46411;SDS011;32113;42.012;24.870;2023-11-21T08:03:24;24.85;;;11.35;;
46411;SDS011;32113;42.012;24.870;2023-11-21T08:05:51;23.58;;;11.15;;
46411;SDS011;32113;42.012;24.870;2023-11-21T08:08:17;30.45;;;11.13;;
46411;SDS011;32113;42.012;24.870;2023-11-21T08:10:44;29.67;;;11.60;;
46411;SDS011;32113;42.012;24.870;2023-11-21T08:13:13;26.85;;;11.73;;
46411;SDS011;32113;42.012;24.870;2023-11-21T08:15:41;26.60;;;12.65;;
46411;SDS011;32113;42.012;24.870;2023-11-21T08:18:11;31.40;;;11.68;;
46411;SDS011;32113;42.012;24.870;2023-11-21T08:20:38;22.38;;;10.43;;
46411;SDS011;32113;42.012;24.870;2023-11-21T08:23:05;27.20;;;10.50;;
46411;SDS011;32113;42.012;24.870;2023-11-21T08:25:31;22.88;;;9.63;;
46411;SDS011;32113;42.012;24.870;2023-11-21T08:27:58;23.55;;;8.55;;
46411;SDS011;32113;42.012;24.870;2023-11-21T08:30:24;19.10;;;9.63;;
46411;SDS011;32113;42.012;24.870;2023-11-21T08:32:50;20.13;;;9.90;;
46411;SDS011;32113;42.012;24.870;2023-11-21T08:35:17;19.75;;;8.80;;
46411;SDS011;32113;42.012;24.870;2023-11-21T08:37:42;21.10;;;8.65;;
46411;SDS011;32113;42.012;24.870;2023-11-21T08:40:08;16.70;;;8.68;;
46411;SDS011;32113;42.012;24.870;2023-11-21T08:42:34;18.70;;;8.10;;
46411;SDS011;32113;42.012;24.870;2023-11-21T08:45:00;14.60;;;7.35;;
46411;SDS011;32113;42.012;24.870;2023-11-21T08:47:26;27.02;;;7.95;;
46411;SDS011;32113;42.012;24.870;2023-11-21T08:49:52;25.45;;;8.40;;
46411;SDS011;32113;42.012;24.870;2023-11-21T08:52:18;18.45;;;7.97;;
46411;SDS011;32113;42.012;24.870;2023-11-21T08:54:47;20.00;;;8.25;;
46411;SDS011;32113;42.012;24.870;2023-11-21T08:57:13;19.52;;;7.43;;
46411;SDS011;32113;42.012;24.870;2023-11-21T08:59:39;22.08;;;8.27;;
46411;SDS011;32113;42.012;24.870;2023-11-21T09:02:04;23.88;;;8.05;;
46411;SDS011;32113;42.012;24.870;2023-11-21T09:04:31;21.98;;;8.63;;
46411;SDS011;32113;42.012;24.870;2023-11-21T09:06:56;17.30;;;7.93;;
46411;SDS011;32113;42.012;24.870;2023-11-21T09:09:25;24.20;;;8.35;;
46411;SDS011;32113;42.012;24.870;2023-11-21T09:11:50;21.70;;;8.73;;
46411;SDS011;32113;42.012;24.870;2023-11-21T09:14:16;20.23;;;9.07;;
46411;SDS011;32113;42.012;24.870;2023-11-21T09:16:43;21.95;;;8.18;;
46411;SDS011;32113;42.012;24.870;2023-11-21T09:19:08;23.25;;;8.82;;
46411;SDS011;32113;42.012;24.870;2023-11-21T09:21:34;23.15;;;9.27;;
46411;SDS011;32113;42.012;24.870;2023-11-21T09:23:59;27.92;;;8.70;;
46411;SDS011;32113;42.012;24.870;2023-11-21T09:26:25;19.48;;;8.77;;
46411;SDS011;32113;42.012;24.870;2023-11-21T09:28:51;20.33;;;8.63;;
46411;SDS011;32113;42.012;24.870;2023-11-21T09:31:16;19.63;;;8.48;;
46411;SDS011;32113;42.012;24.870;2023-11-21T09:33:42;19.58;;;9.48;;
46411;SDS011;32113;42.012;24.870;2023-11-21T09:36:12;22.70;;;9.27;;
46411;SDS011;32113;42.012;24.870;2023-11-21T09:38:41;18.77;;;8.77;;
46411;SDS011;32113;42.012;24.870;2023-11-21T09:41:09;23.67;;;9.13;;
46411;SDS011;32113;42.012;24.870;2023-11-21T09:43:42;22.90;;;8.80;;
46411;SDS011;32113;42.012;24.870;2023-11-21T09:46:12;16.85;;;9.18;;
46411;SDS011;32113;42.012;24.870;2023-11-21T09:48:44;19.92;;;10.02;;
46411;SDS011;32113;42.012;24.870;2023-11-21T09:51:12;22.10;;;11.27;;
46411;SDS011;32113;42.012;24.870;2023-11-21T09:53:38;22.20;;;10.45;;
46411;SDS011;32113;42.012;24.870;2023-11-21T09:56:08;17.77;;;10.32;;
46411;SDS011;32113;42.012;24.870;2023-11-21T09:58:34;20.33;;;10.52;;
46411;SDS011;32113;42.012;24.870;2023-11-21T10:01:00;22.50;;;10.80;;
46411;SDS011;32113;42.012;24.870;2023-11-21T10:03:28;20.40;;;8.38;;
46411;SDS011;32113;42.012;24.870;2023-11-21T10:05:53;26.33;;;8.60;;
46411;SDS011;32113;42.012;24.870;2023-11-21T10:10:49;24.58;;;8.35;;
46411;SDS011;32113;42.012;24.870;2023-11-21T10:13:18;30.65;;;8.88;;
46411;SDS011;32113;42.012;24.870;2023-11-21T10:15:44;25.70;;;8.30;;
46411;SDS011;32113;42.012;24.870;2023-11-21T10:18:16;28.27;;;8.43;;
46411;SDS011;32113;42.012;24.870;2023-11-21T10:20:42;29.52;;;8.20;;
46411;SDS011;32113;42.012;24.870;2023-11-21T10:23:11;30.95;;;9.13;;
46411;SDS011;32113;42.012;24.870;2023-11-21T10:25:38;29.88;;;8.00;;
46411;SDS011;32113;42.012;24.870;2023-11-21T10:28:03;25.05;;;8.20;;
46411;SDS011;32113;42.012;24.870;2023-11-21T10:30:34;26.55;;;8.25;;
46411;SDS011;32113;42.012;24.870;2023-11-21T10:33:03;25.48;;;8.73;;
46411;SDS011;32113;42.012;24.870;2023-11-21T10:35:48;21.92;;;7.55;;
46411;SDS011;32113;42.012;24.870;2023-11-21T10:38:20;25.77;;;8.10;;
46411;SDS011;32113;42.012;24.870;2023-11-21T10:40:49;18.73;;;6.63;;
46411;SDS011;32113;42.012;24.870;2023-11-21T10:43:15;17.05;;;7.13;;
46411;SDS011;32113;42.012;24.870;2023-11-21T10:45:41;22.08;;;8.38;;
46411;SDS011;32113;42.012;24.870;2023-11-21T10:48:12;22.75;;;8.55;;
46411;SDS011;32113;42.012;24.870;2023-11-21T10:50:43;20.95;;;8.90;;
46411;SDS011;32113;42.012;24.870;2023-11-21T10:53:11;18.10;;;7.32;;
46411;SDS011;32113;42.012;24.870;2023-11-21T10:55:37;18.55;;;7.72;;
46411;SDS011;32113;42.012;24.870;2023-11-21T10:58:03;16.95;;;8.40;;
46411;SDS011;32113;42.012;24.870;2023-11-21T11:00:31;19.23;;;7.63;;
46411;SDS011;32113;42.012;24.870;2023-11-21T11:02:58;16.67;;;6.57;;
46411;SDS011;32113;42.012;24.870;2023-11-21T11:05:24;8.63;;;5.90;;
46411;SDS011;32113;42.012;24.870;2023-11-21T11:08:12;7.75;;;4.32;;
46411;SDS011;32113;42.012;24.870;2023-11-21T11:10:43;6.47;;;3.97;;
46411;SDS011;32113;42.012;24.870;2023-11-21T11:13:15;8.75;;;3.65;;
46411;SDS011;32113;42.012;24.870;2023-11-21T11:15:41;7.80;;;4.20;;
46411;SDS011;32113;42.012;24.870;2023-11-21T11:18:09;11.32;;;4.50;;
46411;SDS011;32113;42.012;24.870;2023-11-21T11:20:36;9.90;;;4.38;;
46411;SDS011;32113;42.012;24.870;2023-11-21T11:32:24;13.52;;;6.20;;
46411;SDS011;32113;42.012;24.870;2023-11-21T11:35:25;17.38;;;6.57;;
46411;SDS011;32113;42.012;24.870;2023-11-21T11:37:58;15.05;;;6.90;;
46411;SDS011;32113;42.012;24.870;2023-11-21T11:40:25;15.55;;;5.35;;
46411;SDS011;32113;42.012;24.870;2023-11-21T11:43:05;14.85;;;9.32;;
46411;SDS011;32113;42.012;24.870;2023-11-21T11:45:32;14.27;;;9.25;;
46411;SDS011;32113;42.012;24.870;2023-11-21T11:48:02;13.82;;;7.78;;
46411;SDS011;32113;42.012;24.870;2023-11-21T11:50:28;10.00;;;5.80;;
46411;SDS011;32113;42.012;24.870;2023-11-21T11:52:54;12.35;;;5.47;;
46411;SDS011;32113;42.012;24.870;2023-11-21T11:55:23;12.18;;;5.70;;
46411;SDS011;32113;42.012;24.870;2023-11-21T12:00:19;18.23;;;7.13;;
46411;SDS011;32113;42.012;24.870;2023-11-21T12:02:53;11.88;;;5.20;;
46411;SDS011;32113;42.012;24.870;2023-11-21T12:05:22;14.45;;;5.28;;
46411;SDS011;32113;42.012;24.870;2023-11-21T12:08:06;13.05;;;5.10;;
46411;SDS011;32113;42.012;24.870;2023-11-21T12:10:33;10.15;;;5.32;;
46411;SDS011;32113;42.012;24.870;2023-11-21T12:13:01;11.07;;;6.07;;
46411;SDS011;32113;42.012;24.870;2023-11-21T12:15:38;13.82;;;5.88;;
46411;SDS011;32113;42.012;24.870;2023-11-21T12:18:05;14.02;;;6.35;;
46411;SDS011;32113;42.012;24.870;2023-11-21T12:20:31;12.05;;;6.45;;
46411;SDS011;32113;42.012;24.870;2023-11-21T12:23:00;16.95;;;6.93;;
46411;SDS011;32113;42.012;24.870;2023-11-21T12:25:29;15.85;;;6.85;;
46411;SDS011;32113;42.012;24.870;2023-11-21T12:27:59;18.73;;;6.75;;
46411;SDS011;32113;42.012;24.870;2023-11-21T12:30:26;20.45;;;7.47;;
46411;SDS011;32113;42.012;24.870;2023-11-21T12:32:55;12.57;;;6.65;;
46411;SDS011;32113;42.012;24.870;2023-11-21T12:35:22;13.35;;;7.30;;
46411;SDS011;32113;42.012;24.870;2023-11-21T12:37:51;14.13;;;7.00;;
46411;SDS011;32113;42.012;24.870;2023-11-21T12:40:17;17.90;;;8.60;;
46411;SDS011;32113;42.012;24.870;2023-11-21T12:42:46;15.25;;;8.30;;
46411;SDS011;32113;42.012;24.870;2023-11-21T12:47:48;12.13;;;5.68;;
46411;SDS011;32113;42.012;24.870;2023-11-21T12:50:15;10.52;;;5.88;;
46411;SDS011;32113;42.012;24.870;2023-11-21T12:52:46;9.45;;;6.15;;
46411;SDS011;32113;42.012;24.870;2023-11-21T12:55:13;11.93;;;6.20;;
46411;SDS011;32113;42.012;24.870;2023-11-21T12:57:50;13.63;;;6.63;;
46411;SDS011;32113;42.012;24.870;2023-11-21T13:00:20;13.02;;;7.95;;
46411;SDS011;32113;42.012;24.870;2023-11-21T13:02:55;14.98;;;7.88;;
46411;SDS011;32113;42.012;24.870;2023-11-21T13:05:24;12.77;;;7.05;;
46411;SDS011;32113;42.012;24.870;2023-11-21T13:07:51;15.75;;;7.78;;
46411;SDS011;32113;42.012;24.870;2023-11-21T13:12:47;15.70;;;7.78;;
46411;SDS011;32113;42.012;24.870;2023-11-21T13:15:13;12.50;;;7.78;;
46411;SDS011;32113;42.012;24.870;2023-11-21T13:17:43;18.85;;;8.88;;
46411;SDS011;32113;42.012;24.870;2023-11-21T13:20:12;19.67;;;9.55;;
46411;SDS011;32113;42.012;24.870;2023-11-21T13:22:51;16.58;;;9.15;;
46411;SDS011;32113;42.012;24.870;2023-11-21T13:25:24;16.52;;;8.85;;
46411;SDS011;32113;42.012;24.870;2023-11-21T13:27:54;19.27;;;8.45;;
46411;SDS011;32113;42.012;24.870;2023-11-21T13:30:20;14.82;;;7.90;;
46411;SDS011;32113;42.012;24.870;2023-11-21T13:32:55;15.02;;;8.10;;
46411;SDS011;32113;42.012;24.870;2023-11-21T13:35:30;12.98;;;6.88;;
46411;SDS011;32113;42.012;24.870;2023-11-21T13:38:02;13.32;;;7.18;;
46411;SDS011;32113;42.012;24.870;2023-11-21T13:40:32;24.23;;;12.80;;
46411;SDS011;32113;42.012;24.870;2023-11-21T13:43:05;28.50;;;11.68;;
46411;SDS011;32113;42.012;24.870;2023-11-21T13:45:34;24.63;;;11.80;;
46411;SDS011;32113;42.012;24.870;2023-11-21T13:48:00;21.55;;;10.48;;
46411;SDS011;32113;42.012;24.870;2023-11-21T13:50:26;23.08;;;10.70;;
46411;SDS011;32113;42.012;24.870;2023-11-21T13:53:01;29.90;;;10.30;;
46411;SDS011;32113;42.012;24.870;2023-11-21T13:55:29;15.75;;;8.75;;
46411;SDS011;32113;42.012;24.870;2023-11-21T13:57:54;11.02;;;6.60;;
46411;SDS011;32113;42.012;24.870;2023-11-21T14:00:19;14.40;;;6.35;;
46411;SDS011;32113;42.012;24.870;2023-11-21T14:03:03;19.33;;;7.40;;
46411;SDS011;32113;42.012;24.870;2023-11-21T14:05:34;13.55;;;6.80;;
46411;SDS011;32113;42.012;24.870;2023-11-21T14:08:00;12.40;;;6.68;;
46411;SDS011;32113;42.012;24.870;2023-11-21T14:10:32;13.52;;;5.38;;
46411;SDS011;32113;42.012;24.870;2023-11-21T14:13:05;12.85;;;5.57;;
46411;SDS011;32113;42.012;24.870;2023-11-21T14:15:31;18.67;;;6.68;;
46411;SDS011;32113;42.012;24.870;2023-11-21T14:17:58;23.42;;;9.55;;
46411;SDS011;32113;42.012;24.870;2023-11-21T14:20:25;17.13;;;9.90;;
46411;SDS011;32113;42.012;24.870;2023-11-21T14:22:50;16.88;;;8.52;;
46411;SDS011;32113;42.012;24.870;2023-11-21T14:25:16;23.65;;;10.07;;
46411;SDS011;32113;42.012;24.870;2023-11-21T14:27:42;24.15;;;9.13;;
46411;SDS011;32113;42.012;24.870;2023-11-21T14:30:08;12.82;;;7.85;;
46411;SDS011;32113;42.012;24.870;2023-11-21T14:32:37;15.57;;;6.78;;
46411;SDS011;32113;42.012;24.870;2023-11-21T14:35:03;15.65;;;7.43;;
46411;SDS011;32113;42.012;24.870;2023-11-21T14:37:29;21.73;;;9.77;;
46411;SDS011;32113;42.012;24.870;2023-11-21T14:39:54;22.88;;;9.50;;
46411;SDS011;32113;42.012;24.870;2023-11-21T14:42:20;22.65;;;10.57;;
46411;SDS011;32113;42.012;24.870;2023-11-21T14:44:50;20.42;;;9.90;;
46411;SDS011;32113;42.012;24.870;2023-11-21T14:47:17;28.50;;;11.25;;
46411;SDS011;32113;42.012;24.870;2023-11-21T14:49:44;22.33;;;13.23;;
46411;SDS011;32113;42.012;24.870;2023-11-21T14:52:21;23.83;;;12.13;;
46411;SDS011;32113;42.012;24.870;2023-11-21T14:54:59;21.58;;;12.55;;